ブラザヴィル の空港の天気 - METARとTAF

ブラザビル/マヤマヤ空港 ( FCBB / BZV ) - コンゴ共和国 ブラザヴィル
飛行場実況気象(Metar)
観測時間03/06 13:00 WAT (03/06 12:00 UTC)
風向・風速南西 3m/s
視程10km以上
天気現象
少しの雲 雲底高度 400m
全天の4割程度の雲 雲底高度 700m
気温23℃
湿度89%
気圧1015hPa
METARFCBB 061200Z 22005KT 180V250 9999 FEW013 SCT023 23/21 Q1015 NOSIG
過去の天気等 Google飛行場航空写真 Wunderground天気予報

過去48時間のMETAR

飛行場予報(TAF)
発表時間: 3/06 12:00 WAT (3/06 11:00 UTC)
予報対象時間: 6日13時 WAT ~ 7日19時 WAT
風向・風速西 2m/s
視程9000m
全天の4割程度の雲 雲底高度 550m
7日13時 WAT ~ 7日15時 WAT に徐々に
全天の4割程度の雲 雲底高度 610m
少しの積乱雲 雲底高度 910m
TAF FCBB 061100Z 0612/0718 26004KT 9000 SCT018
BECMG 0712/0714 SCT020 FEW030CB